sensor_id;sensor_type;location;lat;lon;timestamp;pressure;altitude;pressure_sealevel;temperature;humidity
4972;BME280;2501;51.214;6.768;2023-09-07T00:00:43;101629.06;;;19.86;76.60
4972;BME280;2501;51.214;6.768;2023-09-07T00:03:12;101631.47;;;19.98;76.70
4972;BME280;2501;51.214;6.768;2023-09-07T00:05:41;101629.66;;;20.00;75.48
4972;BME280;2501;51.214;6.768;2023-09-07T00:08:10;101632.53;;;19.91;76.40
4972;BME280;2501;51.214;6.768;2023-09-07T00:10:38;101625.63;;;19.79;77.57
4972;BME280;2501;51.214;6.768;2023-09-07T00:13:10;101624.25;;;20.05;76.26
4972;BME280;2501;51.214;6.768;2023-09-07T00:15:41;101628.09;;;19.90;76.41
4972;BME280;2501;51.214;6.768;2023-09-07T00:18:10;101627.06;;;19.96;75.82
4972;BME280;2501;51.214;6.768;2023-09-07T00:20:38;101626.50;;;19.78;76.76
4972;BME280;2501;51.214;6.768;2023-09-07T00:23:06;101615.09;;;19.73;77.67
4972;BME280;2501;51.214;6.768;2023-09-07T00:25:35;101622.09;;;19.77;77.84
4972;BME280;2501;51.214;6.768;2023-09-07T00:28:04;101622.94;;;19.79;78.00
4972;BME280;2501;51.214;6.768;2023-09-07T00:30:35;101629.06;;;19.86;77.35
4972;BME280;2501;51.214;6.768;2023-09-07T00:33:04;101630.84;;;19.84;77.34
4972;BME280;2501;51.214;6.768;2023-09-07T00:35:33;101625.78;;;19.72;77.83
4972;BME280;2501;51.214;6.768;2023-09-07T00:38:01;101625.03;;;19.62;79.29
4972;BME280;2501;51.214;6.768;2023-09-07T00:40:30;101623.25;;;19.63;78.24
4972;BME280;2501;51.214;6.768;2023-09-07T00:42:59;101632.31;;;19.53;79.41
4972;BME280;2501;51.214;6.768;2023-09-07T00:45:27;101626.84;;;19.60;79.31
4972;BME280;2501;51.214;6.768;2023-09-07T00:47:58;101623.28;;;19.61;79.00
4972;BME280;2501;51.214;6.768;2023-09-07T00:50:27;101619.56;;;19.71;78.09
4972;BME280;2501;51.214;6.768;2023-09-07T00:52:56;101611.56;;;19.73;78.01
4972;BME280;2501;51.214;6.768;2023-09-07T00:55:27;101614.13;;;19.76;77.50
4972;BME280;2501;51.214;6.768;2023-09-07T00:57:58;101618.63;;;19.74;77.28
4972;BME280;2501;51.214;6.768;2023-09-07T01:00:26;101614.25;;;19.71;77.50
4972;BME280;2501;51.214;6.768;2023-09-07T01:02:58;101612.84;;;19.47;78.27
4972;BME280;2501;51.214;6.768;2023-09-07T01:05:32;101613.84;;;19.40;79.38
4972;BME280;2501;51.214;6.768;2023-09-07T01:08:09;101616.72;;;19.28;80.12
4972;BME280;2501;51.214;6.768;2023-09-07T01:10:38;101612.28;;;19.27;80.24
4972;BME280;2501;51.214;6.768;2023-09-07T01:13:04;101604.28;;;19.30;80.29
4972;BME280;2501;51.214;6.768;2023-09-07T01:15:33;101614.06;;;19.27;80.65
4972;BME280;2501;51.214;6.768;2023-09-07T01:18:05;101609.84;;;19.15;80.84
4972;BME280;2501;51.214;6.768;2023-09-07T01:20:35;101609.91;;;19.10;81.62
4972;BME280;2501;51.214;6.768;2023-09-07T01:23:07;101607.28;;;19.09;81.55
4972;BME280;2501;51.214;6.768;2023-09-07T01:25:36;101602.00;;;19.06;81.91
4972;BME280;2501;51.214;6.768;2023-09-07T01:28:05;101606.53;;;19.01;82.22
4972;BME280;2501;51.214;6.768;2023-09-07T01:30:35;101607.28;;;19.09;82.53
4972;BME280;2501;51.214;6.768;2023-09-07T01:33:04;101606.50;;;19.04;81.70
4972;BME280;2501;51.214;6.768;2023-09-07T01:35:35;101610.22;;;18.89;82.78
4972;BME280;2501;51.214;6.768;2023-09-07T01:38:07;101606.75;;;18.86;83.21
4972;BME280;2501;51.214;6.768;2023-09-07T01:40:35;101609.56;;;18.73;84.10
4972;BME280;2501;51.214;6.768;2023-09-07T01:43:04;101603.41;;;18.71;84.14
4972;BME280;2501;51.214;6.768;2023-09-07T01:45:32;101604.22;;;18.76;84.63
4972;BME280;2501;51.214;6.768;2023-09-07T01:48:01;101605.13;;;18.75;84.66
4972;BME280;2501;51.214;6.768;2023-09-07T01:50:30;101605.13;;;18.75;84.67
4972;BME280;2501;51.214;6.768;2023-09-07T01:52:58;101600.66;;;18.77;84.37
4972;BME280;2501;51.214;6.768;2023-09-07T01:55:31;101607.13;;;18.57;84.90
4972;BME280;2501;51.214;6.768;2023-09-07T01:57:59;101601.97;;;18.44;85.70
4972;BME280;2501;51.214;6.768;2023-09-07T02:00:28;101606.22;;;18.61;85.63
4972;BME280;2501;51.214;6.768;2023-09-07T02:02:58;101600.81;;;18.68;85.31
4972;BME280;2501;51.214;6.768;2023-09-07T02:05:27;101599.84;;;18.72;84.75
4972;BME280;2501;51.214;6.768;2023-09-07T02:07:57;101602.50;;;18.71;84.74
4972;BME280;2501;51.214;6.768;2023-09-07T02:10:26;101604.34;;;18.69;84.94
4972;BME280;2501;51.214;6.768;2023-09-07T02:12:57;101605.34;;;18.60;85.13
4972;BME280;2501;51.214;6.768;2023-09-07T02:15:27;101598.25;;;18.61;85.21
4972;BME280;2501;51.214;6.768;2023-09-07T02:17:55;101593.72;;;18.67;85.08
4972;BME280;2501;51.214;6.768;2023-09-07T02:20:23;101589.44;;;18.54;84.84
4972;BME280;2501;51.214;6.768;2023-09-07T02:22:52;101587.88;;;18.39;85.87
4972;BME280;2501;51.214;6.768;2023-09-07T02:25:20;101588.53;;;18.55;85.47
4972;BME280;2501;51.214;6.768;2023-09-07T02:27:48;101585.09;;;18.50;85.20
4972;BME280;2501;51.214;6.768;2023-09-07T02:30:20;101585.84;;;18.58;84.70
4972;BME280;2501;51.214;6.768;2023-09-07T02:32:48;101592.91;;;18.62;84.29
4972;BME280;2501;51.214;6.768;2023-09-07T02:35:16;101587.59;;;18.62;83.88
4972;BME280;2501;51.214;6.768;2023-09-07T02:37:45;101586.72;;;18.60;84.19
4972;BME280;2501;51.214;6.768;2023-09-07T02:40:13;101589.41;;;18.59;83.94
4972;BME280;2501;51.214;6.768;2023-09-07T02:42:42;101594.84;;;18.50;84.27
4972;BME280;2501;51.214;6.768;2023-09-07T02:45:11;101593.25;;;18.35;85.01
4972;BME280;2501;51.214;6.768;2023-09-07T02:47:42;101592.38;;;18.34;85.59
4972;BME280;2501;51.214;6.768;2023-09-07T02:50:12;101591.66;;;18.19;86.12
4972;BME280;2501;51.214;6.768;2023-09-07T02:52:43;101597.06;;;18.13;87.11
4972;BME280;2501;51.214;6.768;2023-09-07T02:55:11;101595.19;;;18.21;87.54
4972;BME280;2501;51.214;6.768;2023-09-07T02:57:41;101590.72;;;18.23;86.84
4972;BME280;2501;51.214;6.768;2023-09-07T03:00:10;101598.84;;;18.11;87.38
4972;BME280;2501;51.214;6.768;2023-09-07T03:02:38;101590.06;;;18.05;88.09
4972;BME280;2501;51.214;6.768;2023-09-07T03:05:10;101591.84;;;18.02;88.54
4972;BME280;2501;51.214;6.768;2023-09-07T03:07:38;101600.78;;;17.98;88.64
4972;BME280;2501;51.214;6.768;2023-09-07T03:10:08;101591.91;;;18.00;88.71
4972;BME280;2501;51.214;6.768;2023-09-07T03:12:37;101589.28;;;17.97;88.51
4972;BME280;2501;51.214;6.768;2023-09-07T03:15:06;101587.38;;;18.07;88.75
4972;BME280;2501;51.214;6.768;2023-09-07T03:17:34;101583.91;;;18.02;88.54
4972;BME280;2501;51.214;6.768;2023-09-07T03:20:03;101583.06;;;17.98;88.49
4972;BME280;2501;51.214;6.768;2023-09-07T03:22:43;101587.56;;;17.93;88.89
4972;BME280;2501;51.214;6.768;2023-09-07T03:25:11;101588.47;;;17.91;88.62
4972;BME280;2501;51.214;6.768;2023-09-07T03:27:40;101585.81;;;17.89;88.98
4972;BME280;2501;51.214;6.768;2023-09-07T03:30:09;101578.75;;;17.90;89.08
4972;BME280;2501;51.214;6.768;2023-09-07T03:32:37;101582.28;;;17.89;88.98
4972;BME280;2501;51.214;6.768;2023-09-07T03:35:07;101584.03;;;17.91;88.80
4972;BME280;2501;51.214;6.768;2023-09-07T03:37:36;101580.47;;;17.92;88.64
4972;BME280;2501;51.214;6.768;2023-09-07T03:40:08;101584.91;;;17.92;88.44
4972;BME280;2501;51.214;6.768;2023-09-07T03:42:37;101573.53;;;17.81;88.57
4972;BME280;2501;51.214;6.768;2023-09-07T03:45:06;101575.25;;;17.85;88.84
4972;BME280;2501;51.214;6.768;2023-09-07T03:47:35;101581.31;;;17.97;88.73
4972;BME280;2501;51.214;6.768;2023-09-07T03:50:04;101579.63;;;17.90;88.52
4972;BME280;2501;51.214;6.768;2023-09-07T03:52:33;101581.50;;;17.82;88.88
4972;BME280;2501;51.214;6.768;2023-09-07T03:55:01;101575.25;;;17.85;89.20
4972;BME280;2501;51.214;6.768;2023-09-07T03:57:33;101580.50;;;17.91;89.16
4972;BME280;2501;51.214;6.768;2023-09-07T04:00:02;101581.56;;;17.73;89.11
4972;BME280;2501;51.214;6.768;2023-09-07T04:02:33;101573.69;;;17.62;90.09
4972;BME280;2501;51.214;6.768;2023-09-07T04:05:02;101575.50;;;17.59;90.97
4972;BME280;2501;51.214;6.768;2023-09-07T04:07:31;101584.38;;;17.55;91.67
4972;BME280;2501;51.214;6.768;2023-09-07T04:09:59;101576.38;;;17.64;91.34
4972;BME280;2501;51.214;6.768;2023-09-07T04:12:28;101579.03;;;17.64;91.25
4972;BME280;2501;51.214;6.768;2023-09-07T04:14:59;101586.00;;;17.74;90.58
4972;BME280;2501;51.214;6.768;2023-09-07T04:17:28;101582.44;;;17.75;90.60
4972;BME280;2501;51.214;6.768;2023-09-07T04:20:06;101584.28;;;17.67;90.73
4972;BME280;2501;51.214;6.768;2023-09-07T04:22:37;101580.88;;;17.51;90.97
4972;BME280;2501;51.214;6.768;2023-09-07T04:25:07;101579.25;;;17.36;92.46
4972;BME280;2501;51.214;6.768;2023-09-07T04:27:35;101582.78;;;17.35;93.07
4972;BME280;2501;51.214;6.768;2023-09-07T04:30:07;101576.59;;;17.35;93.93
4972;BME280;2501;51.214;6.768;2023-09-07T04:32:36;101587.28;;;17.27;93.27
4972;BME280;2501;51.214;6.768;2023-09-07T04:35:05;101582.72;;;17.45;93.20
4972;BME280;2501;51.214;6.768;2023-09-07T04:37:34;101586.22;;;17.48;92.13
4972;BME280;2501;51.214;6.768;2023-09-07T04:40:05;101587.13;;;17.47;91.61
4972;BME280;2501;51.214;6.768;2023-09-07T04:42:34;101587.91;;;17.54;90.98
4972;BME280;2501;51.214;6.768;2023-09-07T04:45:07;101583.59;;;17.45;91.31
4972;BME280;2501;51.214;6.768;2023-09-07T04:47:36;101581.03;;;17.34;92.13
4972;BME280;2501;51.214;6.768;2023-09-07T04:50:06;101585.41;;;17.37;92.39
4972;BME280;2501;51.214;6.768;2023-09-07T04:52:35;101595.16;;;17.35;92.04
4972;BME280;2501;51.214;6.768;2023-09-07T04:55:04;101595.31;;;17.15;93.25
4972;BME280;2501;51.214;6.768;2023-09-07T04:57:32;101597.97;;;17.15;94.16
4972;BME280;2501;51.214;6.768;2023-09-07T05:00:01;101604.09;;;17.26;94.56
4972;BME280;2501;51.214;6.768;2023-09-07T05:02:33;101595.09;;;17.46;93.92
4972;BME280;2501;51.214;6.768;2023-09-07T05:05:08;101600.31;;;17.50;92.89
4972;BME280;2501;51.214;6.768;2023-09-07T05:07:37;101604.78;;;17.48;92.76
4972;BME280;2501;51.214;6.768;2023-09-07T05:10:07;101593.25;;;17.51;92.35
4972;BME280;2501;51.214;6.768;2023-09-07T05:12:37;101600.25;;;17.59;92.71
4972;BME280;2501;51.214;6.768;2023-09-07T05:15:06;101601.16;;;17.58;91.64
4972;BME280;2501;51.214;6.768;2023-09-07T05:17:37;101607.38;;;17.53;90.98
4972;BME280;2501;51.214;6.768;2023-09-07T05:20:07;101609.13;;;17.55;90.96
4972;BME280;2501;51.214;6.768;2023-09-07T05:22:36;101610.00;;;17.57;89.83
4972;BME280;2501;51.214;6.768;2023-09-07T05:25:06;101611.75;;;17.64;89.87
4972;BME280;2501;51.214;6.768;2023-09-07T05:27:35;101604.59;;;17.68;88.98
4972;BME280;2501;51.214;6.768;2023-09-07T05:30:05;101608.16;;;17.68;89.15
4972;BME280;2501;51.214;6.768;2023-09-07T05:32:37;101616.09;;;17.68;89.74
4972;BME280;2501;51.214;6.768;2023-09-07T05:35:07;101613.50;;;17.65;90.13
4972;BME280;2501;51.214;6.768;2023-09-07T05:37:37;101616.16;;;17.64;91.13
4972;BME280;2501;51.214;6.768;2023-09-07T05:40:06;101621.34;;;17.76;91.03
4972;BME280;2501;51.214;6.768;2023-09-07T05:42:35;101626.59;;;17.82;90.84
4972;BME280;2501;51.214;6.768;2023-09-07T05:45:05;101622.19;;;17.81;90.87
4972;BME280;2501;51.214;6.768;2023-09-07T05:47:37;101629.28;;;17.79;90.88
4972;BME280;2501;51.214;6.768;2023-09-07T05:50:06;101633.72;;;17.76;91.45
4972;BME280;2501;51.214;6.768;2023-09-07T05:52:34;101630.16;;;17.81;91.41
4972;BME280;2501;51.214;6.768;2023-09-07T05:55:04;101634.44;;;17.93;91.21
4972;BME280;2501;51.214;6.768;2023-09-07T05:57:32;101633.59;;;17.89;90.62
4972;BME280;2501;51.214;6.768;2023-09-07T06:00:02;101631.81;;;17.91;90.70
4972;BME280;2501;51.214;6.768;2023-09-07T06:02:30;101630.94;;;17.88;91.22
4972;BME280;2501;51.214;6.768;2023-09-07T06:05:01;101636.34;;;17.80;92.01
4972;BME280;2501;51.214;6.768;2023-09-07T06:07:30;101643.47;;;17.75;93.31
4972;BME280;2501;51.214;6.768;2023-09-07T06:09:58;101638.16;;;17.77;93.61
4972;BME280;2501;51.214;6.768;2023-09-07T06:12:27;101639.91;;;17.78;93.74
4972;BME280;2501;51.214;6.768;2023-09-07T06:14:55;101643.28;;;17.93;93.74
4972;BME280;2501;51.214;6.768;2023-09-07T06:17:24;101644.13;;;17.98;92.71
4972;BME280;2501;51.214;6.768;2023-09-07T06:19:53;101652.88;;;18.05;91.93
4972;BME280;2501;51.214;6.768;2023-09-07T06:22:24;101655.47;;;18.13;90.83
4972;BME280;2501;51.214;6.768;2023-09-07T06:24:52;101648.22;;;18.28;89.95
4972;BME280;2501;51.214;6.768;2023-09-07T06:27:21;101653.50;;;18.30;88.27
4972;BME280;2501;51.214;6.768;2023-09-07T06:29:50;101656.13;;;18.34;87.28
4972;BME280;2501;51.214;6.768;2023-09-07T06:32:19;101655.75;;;18.66;85.35
4972;BME280;2501;51.214;6.768;2023-09-07T06:34:54;101655.81;;;18.62;84.74
4972;BME280;2501;51.214;6.768;2023-09-07T06:40:28;101661.78;;;18.79;82.90
4972;BME280;2501;51.214;6.768;2023-09-07T06:42:57;101667.78;;;18.93;82.53
4972;BME280;2501;51.214;6.768;2023-09-07T06:45:26;101663.00;;;19.18;80.57
4972;BME280;2501;51.214;6.768;2023-09-07T06:47:54;101667.38;;;19.21;79.56
4972;BME280;2501;51.214;6.768;2023-09-07T06:50:23;101663.75;;;19.25;78.12
4972;BME280;2501;51.214;6.768;2023-09-07T06:52:54;101660.09;;;19.32;77.71
4972;BME280;2501;51.214;6.768;2023-09-07T06:55:22;101654.66;;;19.39;77.08
4972;BME280;2501;51.214;6.768;2023-09-07T06:57:51;101651.56;;;19.67;76.90
4972;BME280;2501;51.214;6.768;2023-09-07T07:00:20;101649.59;;;19.78;75.19
4972;BME280;2501;51.214;6.768;2023-09-07T07:02:48;101653.69;;;19.97;73.35
4972;BME280;2501;51.214;6.768;2023-09-07T07:05:16;101654.66;;;19.92;73.97
4972;BME280;2501;51.214;6.768;2023-09-07T07:07:45;101653.41;;;20.11;72.68
4972;BME280;2501;51.214;6.768;2023-09-07T07:10:16;101660.97;;;20.34;72.41
4972;BME280;2501;51.214;6.768;2023-09-07T07:12:45;101656.53;;;20.33;72.26
4972;BME280;2501;51.214;6.768;2023-09-07T07:15:13;101666.31;;;20.32;70.50
4972;BME280;2501;51.214;6.768;2023-09-07T07:17:42;101671.56;;;20.38;70.51
4972;BME280;2501;51.214;6.768;2023-09-07T07:20:11;101671.53;;;20.40;70.43
4972;BME280;2501;51.214;6.768;2023-09-07T07:22:39;101665.66;;;20.66;69.99
4972;BME280;2501;51.214;6.768;2023-09-07T07:25:08;101663.72;;;20.74;69.40
4972;BME280;2501;51.214;6.768;2023-09-07T07:27:39;101670.69;;;20.79;69.02
4972;BME280;2501;51.214;6.768;2023-09-07T07:30:08;101666.53;;;21.06;68.13
4972;BME280;2501;51.214;6.768;2023-09-07T07:32:37;101664.44;;;21.22;67.72
4972;BME280;2501;51.214;6.768;2023-09-07T07:35:06;101659.34;;;21.10;68.48
4972;BME280;2501;51.214;6.768;2023-09-07T07:37:34;101655.44;;;21.26;67.56
4972;BME280;2501;51.214;6.768;2023-09-07T07:40:03;101645.91;;;21.51;66.17
4972;BME280;2501;51.214;6.768;2023-09-07T07:42:32;101655.59;;;21.89;64.81
4972;BME280;2501;51.214;6.768;2023-09-07T07:45:04;101652.09;;;21.87;64.15
4972;BME280;2501;51.214;6.768;2023-09-07T07:47:32;101657.31;;;21.92;64.29
4972;BME280;2501;51.214;6.768;2023-09-07T07:50:01;101652.00;;;22.25;62.77
4972;BME280;2501;51.214;6.768;2023-09-07T07:52:30;101653.41;;;22.38;61.71
4972;BME280;2501;51.214;6.768;2023-09-07T07:54:59;101653.28;;;22.42;60.92
4972;BME280;2501;51.214;6.768;2023-09-07T07:57:27;101654.81;;;22.51;60.71
4972;BME280;2501;51.214;6.768;2023-09-07T07:59:56;101647.25;;;22.65;60.15
4972;BME280;2501;51.214;6.768;2023-09-07T08:02:27;101642.97;;;22.60;59.31
4972;BME280;2501;51.214;6.768;2023-09-07T08:04:56;101643.38;;;22.77;58.68
4972;BME280;2501;51.214;6.768;2023-09-07T08:07:25;101645.13;;;22.78;58.77
4972;BME280;2501;51.214;6.768;2023-09-07T08:09:54;101645.81;;;22.84;59.06
4972;BME280;2501;51.214;6.768;2023-09-07T08:12:23;101642.75;;;22.97;60.32
4972;BME280;2501;51.214;6.768;2023-09-07T08:14:51;101638.53;;;22.88;60.44
4972;BME280;2501;51.214;6.768;2023-09-07T08:17:22;101637.34;;;22.98;60.13
4972;BME280;2501;51.214;6.768;2023-09-07T08:19:53;101639.97;;;23.00;59.91
4972;BME280;2501;51.214;6.768;2023-09-07T08:22:22;101632.44;;;23.39;59.17
4972;BME280;2501;51.214;6.768;2023-09-07T08:24:51;101640.28;;;23.45;56.44
4972;BME280;2501;51.214;6.768;2023-09-07T08:27:19;101632.59;;;23.62;54.64
4972;BME280;2501;51.214;6.768;2023-09-07T08:29:48;101627.81;;;23.72;55.29
4972;BME280;2501;51.214;6.768;2023-09-07T08:32:19;101631.41;;;23.95;53.35
4972;BME280;2501;51.214;6.768;2023-09-07T08:34:48;101629.41;;;24.02;55.86
4972;BME280;2501;51.214;6.768;2023-09-07T08:37:21;101626.66;;;24.04;53.26
4972;BME280;2501;51.214;6.768;2023-09-07T08:39:50;101626.16;;;24.17;53.42
4972;BME280;2501;51.214;6.768;2023-09-07T08:42:19;101629.38;;;24.27;54.41
4972;BME280;2501;51.214;6.768;2023-09-07T08:44:49;101626.03;;;24.20;55.32
4972;BME280;2501;51.214;6.768;2023-09-07T08:47:20;101620.47;;;24.26;53.89
4972;BME280;2501;51.214;6.768;2023-09-07T08:49:49;101628.19;;;24.36;54.66
4972;BME280;2501;51.214;6.768;2023-09-07T08:52:21;101624.84;;;24.29;54.26
4972;BME280;2501;51.214;6.768;2023-09-07T08:54:50;101625.81;;;24.26;55.58
4972;BME280;2501;51.214;6.768;2023-09-07T08:57:19;101625.38;;;24.14;56.02
4972;BME280;2501;51.214;6.768;2023-09-07T08:59:49;101619.16;;;24.38;55.11
4972;BME280;2501;51.214;6.768;2023-09-07T09:02:17;101619.94;;;24.63;54.23
4972;BME280;2501;51.214;6.768;2023-09-07T09:04:46;101616.28;;;24.66;53.45
4972;BME280;2501;51.214;6.768;2023-09-07T09:07:14;101627.25;;;24.60;52.82
4972;BME280;2501;51.214;6.768;2023-09-07T09:09:45;101620.88;;;24.86;52.29
4972;BME280;2501;51.214;6.768;2023-09-07T09:12:15;101614.81;;;25.04;51.54
4972;BME280;2501;51.214;6.768;2023-09-07T09:14:44;101618.47;;;24.78;50.65
4972;BME280;2501;51.214;6.768;2023-09-07T09:17:13;101610.06;;;25.11;50.98
4972;BME280;2501;51.214;6.768;2023-09-07T09:19:42;101607.81;;;25.00;50.15
4972;BME280;2501;51.214;6.768;2023-09-07T09:22:11;101611.25;;;25.25;50.17
4972;BME280;2501;51.214;6.768;2023-09-07T09:24:40;101605.53;;;25.33;49.51
4972;BME280;2501;51.214;6.768;2023-09-07T09:27:11;101606.88;;;25.23;49.83
4972;BME280;2501;51.214;6.768;2023-09-07T09:29:40;101605.47;;;25.35;49.57
4972;BME280;2501;51.214;6.768;2023-09-07T09:32:10;101603.72;;;25.33;49.19
4972;BME280;2501;51.214;6.768;2023-09-07T09:34:43;101601.97;;;25.32;49.43
4972;BME280;2501;51.214;6.768;2023-09-07T09:37:15;101608.56;;;25.25;49.78
4972;BME280;2501;51.214;6.768;2023-09-07T09:39:49;101611.19;;;25.47;49.71
4972;BME280;2501;51.214;6.768;2023-09-07T09:42:22;101609.38;;;25.70;48.56
4972;BME280;2501;51.214;6.768;2023-09-07T09:44:52;101606.00;;;25.64;48.54
4972;BME280;2501;51.214;6.768;2023-09-07T09:47:22;101605.22;;;25.62;48.57
4972;BME280;2501;51.214;6.768;2023-09-07T09:49:52;101607.00;;;25.82;49.15
4972;BME280;2501;51.214;6.768;2023-09-07T09:52:21;101601.19;;;25.73;48.39
4972;BME280;2501;51.214;6.768;2023-09-07T09:54:51;101603.25;;;25.86;48.87
4972;BME280;2501;51.214;6.768;2023-09-07T09:57:23;101601.44;;;26.07;48.49
4972;BME280;2501;51.214;6.768;2023-09-07T09:59:53;101595.69;;;25.96;48.74
4972;BME280;2501;51.214;6.768;2023-09-07T10:02:22;101593.09;;;26.13;48.22
4972;BME280;2501;51.214;6.768;2023-09-07T10:04:52;101593.00;;;25.96;48.83
4972;BME280;2501;51.214;6.768;2023-09-07T10:07:29;101591.94;;;26.19;48.80
4972;BME280;2501;51.214;6.768;2023-09-07T10:10:09;101585.59;;;26.40;47.89
4972;BME280;2501;51.214;6.768;2023-09-07T10:12:45;101590.56;;;26.49;47.96
4972;BME280;2501;51.214;6.768;2023-09-07T10:15:21;101580.88;;;26.45;47.92
4972;BME280;2501;51.214;6.768;2023-09-07T10:17:50;101578.03;;;26.09;48.67
4972;BME280;2501;51.214;6.768;2023-09-07T10:20:19;101584.56;;;26.04;49.30
4972;BME280;2501;51.214;6.768;2023-09-07T10:23:02;101584.53;;;26.24;48.63
4972;BME280;2501;51.214;6.768;2023-09-07T10:25:30;101579.00;;;26.27;48.53
4972;BME280;2501;51.214;6.768;2023-09-07T10:28:02;101576.72;;;26.18;48.70
4972;BME280;2501;51.214;6.768;2023-09-07T10:30:31;101572.44;;;26.34;48.94
4972;BME280;2501;51.214;6.768;2023-09-07T10:32:59;101572.16;;;26.40;48.28
4972;BME280;2501;51.214;6.768;2023-09-07T10:35:35;101568.19;;;26.28;48.73
4972;BME280;2501;51.214;6.768;2023-09-07T10:38:03;101564.75;;;26.45;48.84
4972;BME280;2501;51.214;6.768;2023-09-07T10:40:32;101544.88;;;26.66;48.39
4972;BME280;2501;51.214;6.768;2023-09-07T10:43:04;101546.72;;;27.02;47.84
4972;BME280;2501;51.214;6.768;2023-09-07T10:45:33;101549.34;;;27.03;47.23
4972;BME280;2501;51.214;6.768;2023-09-07T10:48:02;101551.81;;;26.89;47.51
4972;BME280;2501;51.214;6.768;2023-09-07T10:50:42;101551.75;;;27.27;46.65
4972;BME280;2501;51.214;6.768;2023-09-07T10:53:12;101550.06;;;27.24;46.47
4972;BME280;2501;51.214;6.768;2023-09-07T10:55:41;101548.44;;;27.73;45.18
4972;BME280;2501;51.214;6.768;2023-09-07T10:58:24;101539.00;;;27.13;46.44
4972;BME280;2501;51.214;6.768;2023-09-07T11:00:53;101539.38;;;27.06;45.84
4972;BME280;2501;51.214;6.768;2023-09-07T11:03:21;101536.53;;;27.26;46.40
4972;BME280;2501;51.214;6.768;2023-09-07T11:05:51;101536.84;;;27.37;46.05
4972;BME280;2501;51.214;6.768;2023-09-07T11:08:24;101538.59;;;27.38;45.50
4972;BME280;2501;51.214;6.768;2023-09-07T11:10:53;101532.75;;;27.30;46.05
4972;BME280;2501;51.214;6.768;2023-09-07T11:13:24;101525.09;;;27.55;45.45
4972;BME280;2501;51.214;6.768;2023-09-07T11:15:54;101531.16;;;27.43;45.68
4972;BME280;2501;51.214;6.768;2023-09-07T11:18:23;101532.84;;;27.63;45.74
4972;BME280;2501;51.214;6.768;2023-09-07T11:20:53;101521.06;;;27.81;45.70
4972;BME280;2501;51.214;6.768;2023-09-07T11:23:21;101514.41;;;27.54;46.34
4972;BME280;2501;51.214;6.768;2023-09-07T11:25:51;101514.41;;;27.54;46.72
4972;BME280;2501;51.214;6.768;2023-09-07T11:28:19;101512.91;;;27.83;45.91
4972;BME280;2501;51.214;6.768;2023-09-07T11:30:54;101512.72;;;27.70;46.67
4972;BME280;2501;51.214;6.768;2023-09-07T11:33:23;101504.28;;;27.76;46.84
4972;BME280;2501;51.214;6.768;2023-09-07T11:35:51;101513.78;;;27.83;45.56
4972;BME280;2501;51.214;6.768;2023-09-07T11:38:20;101504.19;;;27.78;44.14
4972;BME280;2501;51.214;6.768;2023-09-07T11:40:48;101499.00;;;27.90;44.13
4972;BME280;2501;51.214;6.768;2023-09-07T11:43:17;101501.72;;;28.39;44.88
4972;BME280;2501;51.214;6.768;2023-09-07T11:45:48;101503.22;;;28.12;44.76
4972;BME280;2501;51.214;6.768;2023-09-07T11:48:19;101503.53;;;27.90;45.21
4972;BME280;2501;51.214;6.768;2023-09-07T11:50:48;101502.28;;;27.80;45.60
4972;BME280;2501;51.214;6.768;2023-09-07T11:53:16;101490.91;;;27.90;45.25
4972;BME280;2501;51.214;6.768;2023-09-07T11:55:44;101496.78;;;27.98;45.00
4972;BME280;2501;51.214;6.768;2023-09-07T11:58:13;101489.19;;;28.22;43.99
4972;BME280;2501;51.214;6.768;2023-09-07T12:00:41;101497.16;;;28.24;43.95
4972;BME280;2501;51.214;6.768;2023-09-07T12:03:10;101484.06;;;28.00;44.38
4972;BME280;2501;51.214;6.768;2023-09-07T12:05:41;101490.16;;;28.21;43.43
4972;BME280;2501;51.214;6.768;2023-09-07T12:08:09;101489.28;;;28.21;42.81
4972;BME280;2501;51.214;6.768;2023-09-07T12:10:38;101482.06;;;28.37;42.42
4972;BME280;2501;51.214;6.768;2023-09-07T12:13:06;101479.78;;;28.45;43.42
4972;BME280;2501;51.214;6.768;2023-09-07T12:15:35;101483.06;;;28.66;42.26
4972;BME280;2501;51.214;6.768;2023-09-07T12:18:04;101478.69;;;28.79;42.42
4972;BME280;2501;51.214;6.768;2023-09-07T12:20:32;101482.03;;;28.84;42.16
4972;BME280;2501;51.214;6.768;2023-09-07T12:23:04;101477.16;;;28.91;42.19
4972;BME280;2501;51.214;6.768;2023-09-07T12:25:33;101462.66;;;28.76;42.11
4972;BME280;2501;51.214;6.768;2023-09-07T12:28:02;101476.38;;;28.89;41.88
4972;BME280;2501;51.214;6.768;2023-09-07T12:30:30;101462.00;;;28.88;41.92
4972;BME280;2501;51.214;6.768;2023-09-07T12:32:59;101458.03;;;28.94;41.31
4972;BME280;2501;51.214;6.768;2023-09-07T12:35:27;101461.25;;;29.00;41.98
4972;BME280;2501;51.214;6.768;2023-09-07T12:37:55;101460.03;;;29.06;41.46
4972;BME280;2501;51.214;6.768;2023-09-07T12:40:27;101466.97;;;29.10;41.51
4972;BME280;2501;51.214;6.768;2023-09-07T12:42:56;101465.19;;;28.95;42.49
4972;BME280;2501;51.214;6.768;2023-09-07T12:45:25;101463.00;;;29.01;42.02
4972;BME280;2501;51.214;6.768;2023-09-07T12:47:53;101461.28;;;29.15;41.91
4972;BME280;2501;51.214;6.768;2023-09-07T12:50:22;101453.50;;;29.24;42.39
4972;BME280;2501;51.214;6.768;2023-09-07T12:52:50;101461.72;;;29.23;40.00
4972;BME280;2501;51.214;6.768;2023-09-07T12:55:20;101448.47;;;29.18;40.43
4972;BME280;2501;51.214;6.768;2023-09-07T12:57:52;101452.81;;;29.21;40.76
4972;BME280;2501;51.214;6.768;2023-09-07T13:00:20;101441.75;;;29.25;40.84
4972;BME280;2501;51.214;6.768;2023-09-07T13:02:49;101444.09;;;29.01;41.26
4972;BME280;2501;51.214;6.768;2023-09-07T13:05:17;101440.78;;;28.96;41.51
4972;BME280;2501;51.214;6.768;2023-09-07T13:07:45;101436.00;;;29.16;40.68
4972;BME280;2501;51.214;6.768;2023-09-07T13:10:14;101436.44;;;29.24;40.92
4972;BME280;2501;51.214;6.768;2023-09-07T13:12:43;101423.75;;;29.40;40.65
4972;BME280;2501;51.214;6.768;2023-09-07T13:15:14;101426.81;;;29.48;39.35
4972;BME280;2501;51.214;6.768;2023-09-07T13:17:43;101420.84;;;29.43;38.76
4972;BME280;2501;51.214;6.768;2023-09-07T13:20:11;101408.00;;;29.89;37.15
4972;BME280;2501;51.214;6.768;2023-09-07T13:22:41;101407.56;;;31.30;34.60
4972;BME280;2501;51.214;6.768;2023-09-07T13:25:11;101410.84;;;32.57;31.90